createdAt,value
2017-05-11T00:01:36.236Z,8.08
2017-05-11T00:03:51.705Z,8.08
2017-05-11T00:06:05.329Z,8.16
2017-05-11T00:06:45.691Z,8.13
2017-05-11T00:07:26.164Z,8.13
2017-05-11T00:08:06.568Z,8.13
2017-05-11T00:08:46.965Z,8.05
2017-05-11T00:09:27.364Z,8.13
2017-05-11T00:10:07.744Z,8.13
2017-05-11T00:10:48.203Z,8.09
2017-05-11T00:11:28.630Z,8.08
2017-05-11T00:12:09.093Z,8.06
2017-05-11T00:12:49.516Z,8.09
2017-05-11T00:13:29.881Z,8.13
2017-05-11T00:14:10.312Z,8.06
2017-05-11T00:14:50.733Z,8.11
2017-05-11T00:15:31.122Z,8.08
2017-05-11T00:16:11.571Z,8.08
2017-05-11T00:16:51.964Z,8.09
2017-05-11T00:17:32.336Z,8.08
2017-05-11T00:18:12.756Z,8.14
2017-05-11T00:18:53.186Z,7.99
2017-05-11T00:19:34.398Z,7.96
2017-05-11T00:20:14.779Z,7.99
2017-05-11T00:20:56.055Z,8.01
2017-05-11T00:21:36.540Z,7.98
2017-05-11T00:22:17.555Z,7.99
2017-05-11T00:22:57.972Z,7.93
2017-05-11T00:23:38.491Z,7.98
2017-05-11T00:24:18.904Z,7.98
2017-05-11T00:24:59.354Z,7.96
2017-05-11T00:25:39.749Z,7.98
2017-05-11T00:26:20.146Z,7.93
2017-05-11T00:27:00.573Z,7.93
2017-05-11T00:27:40.918Z,7.99
2017-05-11T00:28:21.439Z,7.9
2017-05-11T00:29:01.933Z,7.96
2017-05-11T00:29:42.323Z,7.91
2017-05-11T00:30:22.713Z,7.91
2017-05-11T00:32:20.948Z,7.84
2017-05-11T00:33:01.419Z,7.87
2017-05-11T00:34:38.846Z,7.83
2017-05-11T00:35:19.295Z,7.87
2017-05-11T00:35:59.733Z,7.83
2017-05-11T00:36:40.164Z,7.8
2017-05-11T00:37:20.620Z,7.78
2017-05-11T00:38:01.842Z,7.84
2017-05-11T00:38:42.250Z,7.84
2017-05-11T00:39:22.673Z,7.84
2017-05-11T00:40:03.133Z,7.84
2017-05-11T00:40:43.534Z,7.9
2017-05-11T00:41:23.933Z,7.87
2017-05-11T00:42:04.358Z,7.81
2017-05-11T00:42:44.842Z,7.87
2017-05-11T00:43:25.274Z,7.87
2017-05-11T00:44:05.717Z,7.84
2017-05-11T00:44:47.173Z,7.9
2017-05-11T00:45:27.645Z,7.84
2017-05-11T00:46:08.062Z,7.9
2017-05-11T00:46:48.624Z,7.81
2017-05-11T00:47:29.124Z,7.83
2017-05-11T00:48:09.556Z,7.87
2017-05-11T00:48:49.960Z,7.84
2017-05-11T00:49:30.509Z,7.85
2017-05-11T00:50:10.945Z,7.87
2017-05-11T00:50:51.400Z,7.84
2017-05-11T00:51:32.210Z,7.84
2017-05-11T00:52:12.642Z,7.87
2017-05-11T00:52:53.075Z,7.78
2017-05-11T00:53:33.508Z,7.84
2017-05-11T00:54:13.883Z,7.83
2017-05-11T00:54:54.284Z,7.81
2017-05-11T00:55:34.731Z,7.87
2017-05-11T00:56:15.165Z,7.77
2017-05-11T00:56:55.582Z,7.7
2017-05-11T00:57:36.061Z,7.78
2017-05-11T00:58:16.484Z,7.77
2017-05-11T00:58:56.907Z,7.75
2017-05-11T00:59:37.313Z,7.72
2017-05-11T01:00:17.726Z,7.81
2017-05-11T01:00:58.137Z,7.75
2017-05-11T01:01:39.654Z,7.7
2017-05-11T01:02:20.116Z,7.72
2017-05-11T01:03:00.574Z,7.74
2017-05-11T01:03:40.988Z,7.74
2017-05-11T01:04:21.466Z,7.77
2017-05-11T01:05:01.874Z,7.87
2017-05-11T01:05:42.270Z,7.84
2017-05-11T01:06:22.664Z,7.87
2017-05-11T01:07:04.075Z,7.87
2017-05-11T01:07:44.465Z,7.88
2017-05-11T01:08:24.883Z,7.93
2017-05-11T01:09:06.087Z,7.91
2017-05-11T01:09:46.453Z,7.87
2017-05-11T01:10:26.886Z,7.85
2017-05-11T01:11:07.340Z,7.93
2017-05-11T01:11:47.743Z,7.87
2017-05-11T01:12:28.180Z,7.93
2017-05-11T01:13:09.446Z,7.95
2017-05-11T01:13:49.848Z,7.96
2017-05-11T01:14:30.331Z,7.98
2017-05-11T01:15:10.734Z,8.02
2017-05-11T01:15:51.802Z,8.05
2017-05-11T01:16:32.263Z,8.11
2017-05-11T01:17:13.297Z,8.14
2017-05-11T01:17:53.686Z,8.08
2017-05-11T01:18:35.035Z,8.08
2017-05-11T01:19:16.446Z,8.13
2017-05-11T01:19:56.841Z,8.16
2017-05-11T01:20:37.249Z,8.09
2017-05-11T01:21:17.727Z,8.17
2017-05-11T01:21:58.099Z,8.11
2017-05-11T01:22:39.063Z,8.09
2017-05-11T01:23:23.245Z,8.17
2017-05-11T01:24:05.038Z,8.24
2017-05-11T01:24:45.457Z,8.23
2017-05-11T01:25:25.866Z,8.27
2017-05-11T01:26:07.938Z,8.31
2017-05-11T01:26:48.412Z,8.31
2017-05-11T01:27:29.367Z,8.36
2017-05-11T01:28:13.198Z,8.28
2017-05-11T01:28:54.194Z,8.36
2017-05-11T01:31:11.624Z,8.28
2017-05-11T01:31:52.059Z,8.34
2017-05-11T01:32:34.247Z,8.34
2017-05-11T01:33:20.249Z,8.36
2017-05-11T01:34:03.350Z,8.31
2017-05-11T01:34:43.787Z,8.26
2017-05-11T01:35:26.818Z,8.23
2017-05-11T01:36:08.821Z,8.26
2017-05-11T01:36:49.217Z,8.18
2017-05-11T01:37:30.228Z,8.21
2017-05-11T01:38:22.484Z,8.2
2017-05-11T01:39:04.334Z,8.09
2017-05-11T01:39:44.708Z,8.11
2017-05-11T01:40:25.722Z,8.16
2017-05-11T01:41:15.781Z,8.18
2017-05-11T01:41:57.099Z,8.13
2017-05-11T01:42:40.793Z,8.14
2017-05-11T01:43:21.223Z,8.11
2017-05-11T01:44:01.651Z,8.08
2017-05-11T01:44:42.996Z,8.01
2017-05-11T01:45:23.465Z,8.02
2017-05-11T01:46:03.863Z,8.01
2017-05-11T01:46:44.288Z,7.98
2017-05-11T01:47:24.663Z,7.96
2017-05-11T01:48:05.063Z,7.85
2017-05-11T01:50:18.374Z,7.96
2017-05-11T01:50:58.789Z,7.91
2017-05-11T01:51:39.196Z,7.96
2017-05-11T01:52:19.641Z,7.88
2017-05-11T01:53:00.062Z,7.98
2017-05-11T01:53:40.487Z,7.98
2017-05-11T01:54:20.880Z,7.9
2017-05-11T01:55:01.290Z,7.84
2017-05-11T01:55:41.695Z,7.8
2017-05-11T01:56:22.121Z,7.75
2017-05-11T01:57:02.581Z,7.8
2017-05-11T01:57:42.992Z,7.87
2017-05-11T01:58:23.424Z,7.78
2017-05-11T01:59:03.826Z,7.78
2017-05-11T01:59:44.238Z,7.75
2017-05-11T02:00:24.640Z,7.75
2017-05-11T02:01:05.054Z,7.83
2017-05-11T02:01:45.473Z,7.74
2017-05-11T02:02:25.843Z,7.75
2017-05-11T02:03:06.244Z,7.75
2017-05-11T02:03:46.650Z,7.77
2017-05-11T02:04:27.083Z,7.64
2017-05-11T02:05:07.498Z,7.8
2017-05-11T02:05:47.900Z,7.77
2017-05-11T02:06:28.330Z,7.75
2017-05-11T02:07:08.763Z,7.77
2017-05-11T02:07:49.137Z,7.75
2017-05-11T02:08:29.539Z,7.83
2017-05-11T02:09:09.949Z,7.83
2017-05-11T02:09:50.367Z,7.74
2017-05-11T02:10:30.766Z,7.74
2017-05-11T02:11:11.187Z,7.84
2017-05-11T02:11:52.285Z,7.81
2017-05-11T02:12:32.728Z,7.78
2017-05-11T02:13:13.140Z,7.72
2017-05-11T02:13:53.555Z,7.83
2017-05-11T02:14:34.068Z,7.77
2017-05-11T02:15:14.501Z,7.8
2017-05-11T02:15:54.926Z,7.84
2017-05-11T02:16:39.020Z,7.75
2017-05-11T02:17:25.057Z,7.81
2017-05-11T02:18:07.043Z,7.84
2017-05-11T02:18:50.052Z,7.72
2017-05-11T02:19:31.331Z,7.75
2017-05-11T02:20:13.148Z,7.74
2017-05-11T02:20:53.540Z,7.74
2017-05-11T02:21:35.787Z,7.7
2017-05-11T02:22:16.199Z,7.74
2017-05-11T02:22:56.643Z,7.61
2017-05-11T02:23:40.582Z,7.69
2017-05-11T02:24:21.638Z,7.75
2017-05-11T02:25:03.638Z,7.67
2017-05-11T02:25:44.030Z,7.7
2017-05-11T02:26:24.435Z,7.78
2017-05-11T02:27:05.776Z,7.75
2017-05-11T02:27:46.182Z,7.67
2017-05-11T02:28:26.569Z,7.74
2017-05-11T02:29:06.972Z,7.61
2017-05-11T02:29:47.367Z,7.61
2017-05-11T02:30:29.132Z,7.62
2017-05-11T02:31:10.202Z,7.58
2017-05-11T02:31:51.170Z,7.61
2017-05-11T02:32:31.550Z,7.67
2017-05-11T02:33:13.531Z,7.58
2017-05-11T02:33:55.535Z,7.59
2017-05-11T02:34:36.046Z,7.55
2017-05-11T02:35:18.207Z,7.51
2017-05-11T02:35:58.611Z,7.62
2017-05-11T02:36:39.070Z,7.58
2017-05-11T02:37:20.398Z,7.64
2017-05-11T02:38:01.594Z,7.66
2017-05-11T02:38:41.977Z,7.72
2017-05-11T02:39:23.273Z,7.7
2017-05-11T02:40:05.151Z,7.77
2017-05-11T02:40:45.526Z,7.78
2017-05-11T02:41:26.578Z,7.84
2017-05-11T02:42:07.801Z,7.88
2017-05-11T02:42:48.221Z,7.83
2017-05-11T02:43:28.674Z,7.87
2017-05-11T02:44:09.069Z,7.85
2017-05-11T02:44:50.038Z,7.91
2017-05-11T02:45:30.475Z,7.8
2017-05-11T02:46:11.396Z,7.78
2017-05-11T02:46:51.829Z,7.7
2017-05-11T02:47:32.805Z,7.77
2017-05-11T02:48:14.538Z,7.64
2017-05-11T02:48:55.545Z,7.66
2017-05-11T02:49:37.561Z,7.61
2017-05-11T02:50:17.980Z,7.58
2017-05-11T02:51:01.044Z,7.58
2017-05-11T02:51:41.489Z,7.44
2017-05-11T02:52:21.903Z,7.44
2017-05-11T02:53:02.935Z,7.5
2017-05-11T02:53:44.036Z,7.5
2017-05-11T02:54:24.446Z,7.48
2017-05-11T02:55:06.740Z,7.47
2017-05-11T02:55:49.636Z,7.5
2017-05-11T02:56:30.033Z,7.48
2017-05-11T02:57:10.434Z,7.5
2017-05-11T02:57:50.853Z,7.46
2017-05-11T02:58:31.283Z,7.5
2017-05-11T02:59:11.681Z,7.47
2017-05-11T02:59:52.125Z,7.47
2017-05-11T03:00:32.562Z,7.48
2017-05-11T03:01:13.878Z,7.53
2017-05-11T03:01:54.337Z,7.67
2017-05-11T03:02:34.700Z,7.56
2017-05-11T03:03:17.028Z,7.56
2017-05-11T03:03:57.472Z,7.61
2017-05-11T03:04:37.864Z,7.55
2017-05-11T03:05:18.356Z,7.61
2017-05-11T03:05:58.773Z,7.62
2017-05-11T03:06:39.164Z,7.61
2017-05-11T03:07:19.608Z,7.58
2017-05-11T03:08:00.091Z,7.78
2017-05-11T03:08:40.444Z,7.61
2017-05-11T03:09:20.858Z,7.74
2017-05-11T03:10:01.258Z,7.67
2017-05-11T03:10:41.669Z,7.78
2017-05-11T03:11:22.104Z,7.75
2017-05-11T03:12:02.512Z,7.78
2017-05-11T03:12:42.904Z,7.78
2017-05-11T03:13:23.285Z,7.81
2017-05-11T03:14:03.755Z,7.78
2017-05-11T03:14:44.175Z,7.72
2017-05-11T03:15:24.592Z,7.8
2017-05-11T03:16:05.048Z,7.8
2017-05-11T03:16:45.474Z,7.75
2017-05-11T03:17:25.868Z,7.8
2017-05-11T03:18:06.309Z,7.75
2017-05-11T03:18:46.722Z,7.78
2017-05-11T03:19:27.123Z,7.77
2017-05-11T03:20:07.599Z,7.69
2017-05-11T03:20:47.940Z,7.7
2017-05-11T03:21:28.349Z,7.64
2017-05-11T03:22:08.763Z,7.67
2017-05-11T03:22:49.202Z,7.77
2017-05-11T03:23:29.654Z,7.64
2017-05-11T03:24:10.783Z,7.69
2017-05-11T03:24:51.170Z,7.77
2017-05-11T03:25:31.604Z,7.74
2017-05-11T03:27:44.421Z,7.58
2017-05-11T03:28:24.793Z,7.74
2017-05-11T03:29:05.227Z,7.64
2017-05-11T03:29:45.612Z,7.64
2017-05-11T03:30:26.036Z,7.64
2017-05-11T03:31:06.467Z,7.7
2017-05-11T03:31:46.844Z,7.64
2017-05-11T03:32:27.267Z,7.72
2017-05-11T03:33:07.666Z,7.66
2017-05-11T03:33:48.092Z,7.67
2017-05-11T03:34:28.572Z,7.64
2017-05-11T03:35:08.934Z,7.69
2017-05-11T03:35:49.345Z,7.66
2017-05-11T03:36:30.681Z,7.7
2017-05-11T03:37:11.035Z,7.69
2017-05-11T03:37:51.469Z,7.66
2017-05-11T03:38:31.854Z,7.74
2017-05-11T03:39:12.269Z,7.81
2017-05-11T03:39:52.716Z,7.66
2017-05-11T03:40:33.734Z,7.72
2017-05-11T03:41:14.143Z,7.7
2017-05-11T03:41:57.239Z,7.62
2017-05-11T03:42:37.951Z,7.67
2017-05-11T03:43:21.184Z,7.64
2017-05-11T03:44:01.592Z,7.77
2017-05-11T03:44:42.062Z,7.66
2017-05-11T03:45:24.298Z,7.78
2017-05-11T03:46:04.703Z,7.8
2017-05-11T03:46:46.709Z,7.77
2017-05-11T03:47:28.070Z,7.84
2017-05-11T03:48:10.152Z,7.96
2017-05-11T03:48:50.696Z,7.84
2017-05-11T03:49:31.454Z,7.95
2017-05-11T03:51:09.614Z,8.05
2017-05-11T03:51:49.972Z,8.02
2017-05-11T03:52:30.337Z,8.09
2017-05-11T03:53:10.802Z,8.08
2017-05-11T03:53:51.262Z,8.03
2017-05-11T03:54:31.708Z,8.17
2017-05-11T03:55:12.146Z,8.13
2017-05-11T03:57:09.909Z,8.18
2017-05-11T03:57:50.271Z,8.14
2017-05-11T03:58:30.717Z,8.23
2017-05-11T03:59:11.245Z,8.34
2017-05-11T03:59:51.719Z,8.36
2017-05-11T04:00:32.150Z,8.44
2017-05-11T04:01:12.554Z,8.49
2017-05-11T04:01:53.042Z,8.49
2017-05-11T04:02:33.660Z,8.61
2017-05-11T04:03:14.049Z,8.61
2017-05-11T04:03:54.467Z,8.56
2017-05-11T04:04:35.073Z,8.68
2017-05-11T04:05:15.440Z,8.75
2017-05-11T04:05:55.875Z,8.75
2017-05-11T04:06:36.344Z,8.78
2017-05-11T04:07:16.796Z,8.78
2017-05-11T04:07:57.175Z,8.84
2017-05-11T04:08:38.839Z,8.81
2017-05-11T04:09:20.604Z,8.82
2017-05-11T04:10:01.121Z,8.97
2017-05-11T04:10:41.674Z,9
2017-05-11T04:11:22.323Z,8.97
2017-05-11T04:12:02.854Z,8.99
2017-05-11T04:12:43.311Z,8.99
2017-05-11T04:13:23.818Z,8.95
2017-05-11T04:14:04.272Z,9.03
2017-05-11T04:14:44.687Z,9.02
2017-05-11T04:15:25.304Z,9.08
2017-05-11T04:16:06.005Z,9.18
2017-05-11T04:16:46.739Z,9.13
2017-05-11T04:17:27.389Z,9.26
2017-05-11T04:18:08.341Z,9.26
2017-05-11T04:18:48.846Z,9.31
2017-05-11T04:19:29.315Z,9.37
2017-05-11T04:20:09.797Z,9.37
2017-05-11T04:20:50.181Z,9.39
2017-05-11T04:21:30.709Z,9.47
2017-05-11T04:22:11.179Z,9.42
2017-05-11T04:22:51.692Z,9.48
2017-05-11T04:23:32.098Z,9.54
2017-05-11T04:24:12.503Z,9.51
2017-05-11T04:24:53.334Z,9.52
2017-05-11T04:25:33.699Z,9.55
2017-05-11T04:26:14.124Z,9.56
2017-05-11T04:26:55.125Z,9.51
2017-05-11T04:27:36.226Z,9.49
2017-05-11T04:28:16.423Z,9.52
2017-05-11T04:28:57.080Z,9.56
2017-05-11T04:29:38.039Z,9.49
2017-05-11T04:30:21.027Z,9.58
2017-05-11T04:31:02.261Z,9.54
2017-05-11T04:31:42.946Z,9.66
2017-05-11T04:32:24.163Z,9.56
2017-05-11T04:33:05.398Z,9.62
2017-05-11T04:33:45.853Z,9.63
2017-05-11T04:34:26.279Z,9.64
2017-05-11T04:35:06.867Z,9.66
2017-05-11T04:35:47.507Z,9.77
2017-05-11T04:36:28.400Z,9.73
2017-05-11T04:37:09.222Z,9.72
2017-05-11T04:37:49.710Z,9.69
2017-05-11T04:38:30.033Z,9.77
2017-05-11T04:39:10.612Z,9.74
2017-05-11T04:39:51.286Z,9.8
2017-05-11T04:40:32.228Z,9.76
2017-05-11T04:41:12.847Z,9.77
2017-05-11T04:41:53.652Z,9.8
2017-05-11T04:42:34.353Z,9.9
2017-05-11T04:43:15.706Z,9.85
2017-05-11T04:43:56.685Z,9.81
2017-05-11T04:44:37.368Z,9.85
2017-05-11T04:45:18.261Z,9.88
2017-05-11T04:45:58.761Z,9.9
2017-05-11T04:46:39.239Z,9.91
2017-05-11T04:47:19.875Z,9.91
2017-05-11T04:48:01.016Z,9.9
2017-05-11T04:48:42.415Z,9.97
2017-05-11T04:49:24.244Z,9.9
2017-05-11T04:50:04.693Z,9.92
2017-05-11T04:50:45.324Z,9.9
2017-05-11T04:51:25.828Z,9.97
2017-05-11T04:52:06.545Z,9.91
2017-05-11T04:52:47.274Z,9.92
2017-05-11T04:53:28.235Z,9.92
2017-05-11T04:54:09.336Z,9.92
2017-05-11T04:54:50.136Z,9.91
2017-05-11T04:55:30.554Z,10.02
2017-05-11T04:56:11.682Z,10.02
2017-05-11T04:56:52.721Z,10.03
2017-05-11T04:57:35.065Z,10
2017-05-11T04:58:16.218Z,10.05
2017-05-11T04:58:56.698Z,9.99
2017-05-11T04:59:37.400Z,10
2017-05-11T05:00:18.358Z,10
2017-05-11T05:00:58.775Z,10.07
2017-05-11T05:01:39.258Z,10.05
2017-05-11T05:02:19.958Z,10.05
2017-05-11T05:03:00.345Z,10.03
2017-05-11T05:03:40.910Z,10.12
2017-05-11T05:04:21.488Z,10.24
2017-05-11T05:05:01.982Z,10.24
2017-05-11T05:05:42.676Z,10.21
2017-05-11T05:06:23.292Z,10.34
2017-05-11T05:07:04.018Z,10.36
2017-05-11T05:07:44.407Z,10.43
2017-05-11T05:08:24.841Z,10.51
2017-05-11T05:09:05.987Z,10.55
2017-05-11T05:09:46.552Z,10.61
2017-05-11T05:10:27.260Z,10.69
2017-05-11T05:11:07.656Z,10.75
2017-05-11T05:11:48.075Z,10.83
2017-05-11T05:12:28.584Z,10.87
2017-05-11T05:13:09.157Z,11.01
2017-05-11T05:13:50.733Z,11.18
2017-05-11T05:14:31.183Z,11.23
2017-05-11T05:15:11.782Z,11.38
2017-05-11T05:15:52.330Z,11.49
2017-05-11T05:16:32.978Z,11.65
2017-05-11T05:17:15.631Z,11.74
2017-05-11T05:17:56.210Z,11.96
2017-05-11T05:18:36.567Z,12
2017-05-11T05:19:16.929Z,12.11
2017-05-11T05:19:57.378Z,12.17
2017-05-11T05:20:37.815Z,12.21
2017-05-11T05:21:18.279Z,12.35
2017-05-11T05:21:59.466Z,12.57
2017-05-11T05:22:39.306Z,12.63
2017-05-11T05:23:19.810Z,12.75
2017-05-11T05:25:18.192Z,13.06
2017-05-11T05:25:58.628Z,13.21
2017-05-11T05:26:39.048Z,13.28
2017-05-11T05:27:19.937Z,13.46
2017-05-11T05:28:00.348Z,13.49
2017-05-11T05:28:41.174Z,13.67
2017-05-11T05:29:21.632Z,13.65
2017-05-11T05:31:09.795Z,13.85
2017-05-11T05:31:50.181Z,13.87
2017-05-11T05:32:30.624Z,13.95
2017-05-11T05:33:11.075Z,14.04
2017-05-11T05:33:51.516Z,14.13
2017-05-11T05:34:32.033Z,14.16
2017-05-11T05:35:12.891Z,14.26
2017-05-11T05:35:53.307Z,14.25
2017-05-11T05:36:33.761Z,14.37
2017-05-11T05:37:14.137Z,14.45
2017-05-11T05:37:54.560Z,14.56
2017-05-11T05:38:35.026Z,14.63
2017-05-11T05:39:15.405Z,14.74
2017-05-11T05:39:57.636Z,14.77
2017-05-11T05:40:38.126Z,14.9
2017-05-11T05:41:18.583Z,14.86
2017-05-11T05:41:58.985Z,14.86
2017-05-11T05:42:39.476Z,14.89
2017-05-11T05:43:19.905Z,14.94
2017-05-11T05:44:00.321Z,14.96
2017-05-11T05:45:49.008Z,15.1
2017-05-11T05:46:29.390Z,15.14
2017-05-11T05:47:09.827Z,15.15
2017-05-11T05:47:50.210Z,15.25
2017-05-11T05:48:30.623Z,15.37
2017-05-11T05:49:11.041Z,15.52
2017-05-11T05:49:51.454Z,15.48
2017-05-11T05:50:31.882Z,15.57
2017-05-11T05:51:12.349Z,15.6
2017-05-11T05:51:52.747Z,15.66
2017-05-11T05:52:33.149Z,15.7
2017-05-11T05:53:13.625Z,15.62
2017-05-11T05:53:54.029Z,15.66
2017-05-11T05:54:34.513Z,15.57
2017-05-11T05:55:14.890Z,15.62
2017-05-11T05:55:57.042Z,15.62
2017-05-11T05:56:37.459Z,15.67
2017-05-11T05:57:17.929Z,15.73
2017-05-11T05:57:58.342Z,15.69
2017-05-11T05:58:38.746Z,15.73
2017-05-11T05:59:19.181Z,15.9
2017-05-11T05:59:59.631Z,15.94
2017-05-11T06:00:40.019Z,15.99
2017-05-11T06:01:20.452Z,16.13
2017-05-11T06:02:00.861Z,16.21
2017-05-11T06:02:41.344Z,16.39
2017-05-11T06:03:21.963Z,16.43
2017-05-11T06:04:04.102Z,16.54
2017-05-11T06:04:45.048Z,16.66
2017-05-11T06:05:25.497Z,16.66
2017-05-11T06:06:05.966Z,16.76
2017-05-11T06:06:46.392Z,16.84
2017-05-11T06:07:26.764Z,16.95
2017-05-11T06:08:07.194Z,17.04
2017-05-11T06:08:48.105Z,17.05
2017-05-11T06:09:28.498Z,17.05
2017-05-11T06:10:08.922Z,17.07
2017-05-11T06:10:50.140Z,17.09
2017-05-11T06:11:30.595Z,17.09
2017-05-11T06:12:12.739Z,17.04
2017-05-11T06:12:53.173Z,17.1
2017-05-11T06:13:34.202Z,17.1
2017-05-11T06:14:15.611Z,17.14
2017-05-11T06:14:56.091Z,17.23
2017-05-11T06:15:36.583Z,17.2
2017-05-11T06:16:17.060Z,17.19
2017-05-11T06:18:14.847Z,17.46
2017-05-11T06:18:55.208Z,17.53
2017-05-11T06:19:35.649Z,17.56
2017-05-11T06:20:16.085Z,17.52
2017-05-11T06:20:56.503Z,17.63
2017-05-11T06:21:36.909Z,17.65
2017-05-11T06:22:18.177Z,17.75
2017-05-11T06:22:58.530Z,17.87
2017-05-11T06:23:39.020Z,17.94
2017-05-11T06:24:19.434Z,17.94
2017-05-11T06:24:59.970Z,18.06
2017-05-11T06:25:41.201Z,18.16
2017-05-11T06:26:21.639Z,18.28
2017-05-11T06:27:02.091Z,18.36
2017-05-11T06:27:42.472Z,18.39
2017-05-11T06:28:22.882Z,18.41
2017-05-11T06:29:03.288Z,18.36
2017-05-11T06:29:43.785Z,18.31
2017-05-11T06:30:24.168Z,18.31
2017-05-11T06:31:04.569Z,18.37
2017-05-11T06:31:44.977Z,18.33
2017-05-11T06:32:25.466Z,18.45
2017-05-11T06:33:05.871Z,18.42
2017-05-11T06:33:46.393Z,18.42
2017-05-11T06:34:26.800Z,18.34
2017-05-11T06:35:08.479Z,18.46
2017-05-11T06:35:49.064Z,18.51
2017-05-11T06:36:30.025Z,18.51
2017-05-11T06:37:10.443Z,18.39
2017-05-11T06:37:50.835Z,18.42
2017-05-11T06:38:31.257Z,18.45
2017-05-11T06:39:11.655Z,18.49
2017-05-11T06:39:52.071Z,18.46
2017-05-11T06:40:32.486Z,18.42
2017-05-11T06:41:12.942Z,18.48
2017-05-11T06:41:54.332Z,18.36
2017-05-11T06:42:34.714Z,18.33
2017-05-11T06:43:15.181Z,18.28
2017-05-11T06:43:55.594Z,18.36
2017-05-11T06:44:36.172Z,18.16
2017-05-11T06:45:16.591Z,18.16
2017-05-11T06:45:57.016Z,18.08
2017-05-11T06:46:37.446Z,18.11
2017-05-11T06:47:17.897Z,18.18
2017-05-11T06:47:58.331Z,18.21
2017-05-11T06:48:38.730Z,18.33
2017-05-11T06:49:19.188Z,18.36
2017-05-11T06:49:59.604Z,18.46
2017-05-11T06:50:40.039Z,18.57
2017-05-11T06:51:20.493Z,18.71
2017-05-11T06:52:00.900Z,18.74
2017-05-11T06:52:41.355Z,18.76
2017-05-11T06:53:21.807Z,18.88
2017-05-11T06:54:02.235Z,19.08
2017-05-11T06:54:42.606Z,19.26
2017-05-11T06:56:36.375Z,19.41
2017-05-11T06:57:16.792Z,19.55
2017-05-11T06:57:57.196Z,19.57
2017-05-11T06:58:37.594Z,19.49
2017-05-11T06:59:18.047Z,19.62
2017-05-11T07:00:00.409Z,19.64
2017-05-11T07:00:40.861Z,19.78
2017-05-11T07:01:21.408Z,19.85
2017-05-11T07:02:02.391Z,19.99
2017-05-11T07:02:42.916Z,20.11
2017-05-11T07:03:23.328Z,20.21
2017-05-11T07:04:04.508Z,20.33
2017-05-11T07:04:44.881Z,20.32
2017-05-11T07:05:25.336Z,20.55
2017-05-11T07:06:05.790Z,20.64
2017-05-11T07:06:46.231Z,20.63
2017-05-11T07:08:23.776Z,20.89
2017-05-11T07:09:04.210Z,20.93
2017-05-11T07:09:46.649Z,21.03
2017-05-11T07:10:30.347Z,21.25
2017-05-11T07:11:10.802Z,21.41
2017-05-11T07:11:51.223Z,21.58
2017-05-11T07:12:33.383Z,21.66
2017-05-11T07:13:13.780Z,21.78
2017-05-11T07:13:54.266Z,21.89
2017-05-11T07:14:34.648Z,21.99
2017-05-11T07:15:16.626Z,22.19
2017-05-11T07:15:59.720Z,22.33
2017-05-11T07:16:41.872Z,22.56
2017-05-11T07:17:24.068Z,22.74
2017-05-11T07:18:05.447Z,22.81
2017-05-11T07:18:47.887Z,23.13
2017-05-11T07:19:28.293Z,23.32
2017-05-11T07:20:08.731Z,23.29
2017-05-11T07:20:49.170Z,23.45
2017-05-11T07:21:29.574Z,23.48
2017-05-11T07:22:10.099Z,23.4
2017-05-11T07:22:53.142Z,23.39
2017-05-11T07:23:37.048Z,23.29
2017-05-11T07:24:17.509Z,23.32
2017-05-11T07:24:57.885Z,23.25
2017-05-11T07:25:40.113Z,23.14
2017-05-11T07:26:20.574Z,23.11
2017-05-11T07:27:01.050Z,22.92
2017-05-11T07:27:41.434Z,22.71
2017-05-11T07:28:21.930Z,22.61
2017-05-11T07:29:03.900Z,22.52
2017-05-11T07:29:44.326Z,22.58
2017-05-11T07:30:26.558Z,22.51
2017-05-11T07:31:07.031Z,22.55
2017-05-11T07:31:47.414Z,22.62
2017-05-11T07:32:29.741Z,22.77
2017-05-11T07:33:10.159Z,22.89
2017-05-11T07:33:52.068Z,22.99
2017-05-11T07:34:32.511Z,23.36
2017-05-11T07:35:15.389Z,23.7
2017-05-11T07:35:58.393Z,23.99
2017-05-11T07:36:38.857Z,24.11
2017-05-11T07:37:19.259Z,24.5
2017-05-11T07:37:59.636Z,25.04
2017-05-11T07:38:40.079Z,25.52
2017-05-11T07:39:20.564Z,26.04
2017-05-11T07:40:03.548Z,26.74
2017-05-11T07:40:45.566Z,27.26
2017-05-11T07:41:32.566Z,28.13
2017-05-11T07:42:12.980Z,28.72
2017-05-11T07:42:53.425Z,29.27
2017-05-11T07:43:33.875Z,30.05
2017-05-11T07:44:14.309Z,30.52
2017-05-11T07:44:54.734Z,30.62
2017-05-11T07:47:16.985Z,31.32
2017-05-11T07:49:31.534Z,31.9
2017-05-11T07:50:12.008Z,31.98
2017-05-11T07:50:52.406Z,31.98
2017-05-11T07:51:32.856Z,32.11
2017-05-11T07:52:15.738Z,32.42
2017-05-11T07:52:56.874Z,32.71
2017-05-11T07:53:37.316Z,32.85
2017-05-11T07:54:18.578Z,32.67
2017-05-11T07:54:58.985Z,32.68
2017-05-11T07:55:39.464Z,32.64
2017-05-11T07:56:19.892Z,32.56
2017-05-11T07:57:00.340Z,32.49
2017-05-11T07:57:40.795Z,32.38
2017-05-11T07:59:30.586Z,32.39
2017-05-11T08:00:11.047Z,32.45
2017-05-11T08:00:51.506Z,32.61
2017-05-11T08:01:31.939Z,32.71
2017-05-11T08:02:12.418Z,32.95
2017-05-11T08:02:52.856Z,33.03
2017-05-11T08:03:33.270Z,33.12
2017-05-11T08:04:13.763Z,33.35
2017-05-11T08:04:54.133Z,33.5
2017-05-11T08:05:36.595Z,33.58
2017-05-11T08:06:18.594Z,33.69
2017-05-11T08:06:59.557Z,33.77
2017-05-11T08:07:39.998Z,33.95
2017-05-11T08:08:22.179Z,34.09
2017-05-11T08:09:02.603Z,34.25
2017-05-11T08:09:44.478Z,34.31
2017-05-11T08:10:25.655Z,34.51
2017-05-11T08:12:18.595Z,34.58
2017-05-11T08:12:59.044Z,34.24
2017-05-11T08:13:40.447Z,33.72
2017-05-11T08:15:36.714Z,32.94
2017-05-11T08:16:18.141Z,32.73
2017-05-11T08:16:58.581Z,32.63
2017-05-11T08:17:39.031Z,32.61
2017-05-11T08:18:23.169Z,32.66
2017-05-11T08:19:04.162Z,32.78
2017-05-11T08:19:45.446Z,32.75
2017-05-11T08:20:26.830Z,32.71
2017-05-11T08:21:08.171Z,32.56
2017-05-11T08:21:49.448Z,32.46
2017-05-11T08:22:29.826Z,32.59
2017-05-11T08:23:11.665Z,32.63
2017-05-11T08:23:55.023Z,32.49
2017-05-11T08:24:35.452Z,32.53
2017-05-11T08:25:18.279Z,32.46
2017-05-11T08:25:58.684Z,32.35
2017-05-11T08:26:39.772Z,32.57
2017-05-11T08:27:21.819Z,32.61
2017-05-11T08:28:04.004Z,32.53
2017-05-11T08:28:44.433Z,32.44
2017-05-11T08:29:25.476Z,31.95
2017-05-11T08:30:06.832Z,31.54
2017-05-11T08:30:47.263Z,30.92
2017-05-11T08:31:27.759Z,30.51
2017-05-11T08:32:08.990Z,29.94
2017-05-11T08:32:51.253Z,29.16
2017-05-11T08:33:32.261Z,28.59
2017-05-11T08:34:12.683Z,28.13
2017-05-11T08:34:53.079Z,27.66
2017-05-11T08:35:34.414Z,27.19
2017-05-11T08:36:14.866Z,26.89
2017-05-11T08:36:55.257Z,26.44
2017-05-11T08:37:35.697Z,26.13
2017-05-11T08:38:16.137Z,26.01
2017-05-11T08:40:04.090Z,25.66
2017-05-11T08:40:44.519Z,25.48
2017-05-11T08:41:24.945Z,25.34
2017-05-11T08:42:05.367Z,25.19
2017-05-11T08:42:45.812Z,25.15
2017-05-11T08:43:26.201Z,25.06
2017-05-11T08:44:06.621Z,24.97
2017-05-11T08:44:47.094Z,24.79
2017-05-11T08:45:28.020Z,24.58
2017-05-11T08:46:08.463Z,24.44
2017-05-11T08:46:48.904Z,24.18
2017-05-11T08:47:29.344Z,24.06
2017-05-11T08:48:09.767Z,23.74
2017-05-11T08:48:50.232Z,23.62
2017-05-11T08:49:30.678Z,23.44
2017-05-11T08:50:11.103Z,23.26
2017-05-11T08:50:51.528Z,23.11
2017-05-11T08:51:31.984Z,22.88
2017-05-11T08:53:44.746Z,22.36
2017-05-11T08:54:25.195Z,22.22
2017-05-11T08:55:05.647Z,22.21
2017-05-11T08:55:46.037Z,22.15
2017-05-11T08:56:26.455Z,22.06
2017-05-11T08:57:06.937Z,22.12
2017-05-11T08:57:47.400Z,22.06
2017-05-11T08:58:27.809Z,22.03
2017-05-11T08:59:08.201Z,22.03
2017-05-11T08:59:48.636Z,22.07
2017-05-11T09:00:29.070Z,22.03
2017-05-11T09:01:09.496Z,22.14
2017-05-11T09:01:49.940Z,22.23
2017-05-11T09:02:30.338Z,22.33
2017-05-11T09:03:10.765Z,22.52
2017-05-11T09:03:52.037Z,22.95
2017-05-11T09:04:32.449Z,23.32
2017-05-11T09:05:12.934Z,23.82
2017-05-11T09:05:53.344Z,24.22
2017-05-11T09:06:33.730Z,24.82
2017-05-11T09:07:14.189Z,25.22
2017-05-11T09:07:54.612Z,25.61
2017-05-11T09:08:34.989Z,26.07
2017-05-11T09:09:15.411Z,26.31
2017-05-11T09:09:55.914Z,26.53
2017-05-11T09:11:54.105Z,26.49
2017-05-11T09:12:34.540Z,26.26
2017-05-11T09:13:14.994Z,26.07
2017-05-11T09:13:55.414Z,25.74
2017-05-11T09:14:35.827Z,25.54
2017-05-11T09:16:49.297Z,25.01
2017-05-11T09:17:29.701Z,25.04
2017-05-11T09:18:10.123Z,24.99
2017-05-11T09:18:50.553Z,25.09
2017-05-11T09:19:30.995Z,25.03
2017-05-11T09:20:11.448Z,25.07
2017-05-11T09:20:51.853Z,25.12
2017-05-11T09:21:32.300Z,25.21
2017-05-11T09:22:12.702Z,25.37
2017-05-11T09:22:53.133Z,25.63
2017-05-11T09:23:33.582Z,25.89
2017-05-11T09:24:14.049Z,25.96
2017-05-11T09:24:54.451Z,26.49
2017-05-11T09:25:34.897Z,26.97
2017-05-11T09:26:15.281Z,27.4
2017-05-11T09:26:55.719Z,27.58
2017-05-11T09:27:36.126Z,27.94
2017-05-11T09:28:16.574Z,28.23
2017-05-11T09:28:56.961Z,28.52